sensor_id;sensor_type;location;lat;lon;timestamp;P1;durP1;ratioP1;P2;durP2;ratioP2
65871;SDS011;52653;50.080;21.992;2023-03-31T00:01:39;12.60;;;10.50;;
65871;SDS011;52653;50.080;21.992;2023-03-31T00:04:32;13.10;;;10.40;;
65871;SDS011;52653;50.080;21.992;2023-03-31T00:07:26;14.50;;;10.90;;
65871;SDS011;52653;50.080;21.992;2023-03-31T00:10:20;13.70;;;10.70;;
65871;SDS011;52653;50.080;21.992;2023-03-31T00:13:08;12.20;;;9.70;;
65871;SDS011;52653;50.080;21.992;2023-03-31T00:16:02;12.40;;;9.50;;
65871;SDS011;52653;50.080;21.992;2023-03-31T00:18:58;12.70;;;9.60;;
65871;SDS011;52653;50.080;21.992;2023-03-31T00:21:51;13.60;;;10.20;;
65871;SDS011;52653;50.080;21.992;2023-03-31T00:24:44;13.70;;;10.70;;
65871;SDS011;52653;50.080;21.992;2023-03-31T00:27:37;14.20;;;10.60;;
65871;SDS011;52653;50.080;21.992;2023-03-31T00:30:33;12.50;;;9.80;;
65871;SDS011;52653;50.080;21.992;2023-03-31T00:33:27;12.80;;;10.30;;
65871;SDS011;52653;50.080;21.992;2023-03-31T00:36:20;12.60;;;10.20;;
65871;SDS011;52653;50.080;21.992;2023-03-31T00:39:08;11.70;;;9.70;;
65871;SDS011;52653;50.080;21.992;2023-03-31T00:42:02;13.90;;;10.30;;
65871;SDS011;52653;50.080;21.992;2023-03-31T00:48:17;11.90;;;9.50;;
65871;SDS011;52653;50.080;21.992;2023-03-31T00:51:02;11.90;;;9.70;;
65871;SDS011;52653;50.080;21.992;2023-03-31T00:53:57;10.90;;;9.10;;
65871;SDS011;52653;50.080;21.992;2023-03-31T00:56:53;13.10;;;9.50;;
65871;SDS011;52653;50.080;21.992;2023-03-31T00:59:44;12.10;;;10.30;;
65871;SDS011;52653;50.080;21.992;2023-03-31T01:02:39;10.60;;;9.40;;
65871;SDS011;52653;50.080;21.992;2023-03-31T01:05:41;13.50;;;10.10;;
65871;SDS011;52653;50.080;21.992;2023-03-31T01:08:38;12.10;;;10.30;;
65871;SDS011;52653;50.080;21.992;2023-03-31T01:11:31;11.60;;;9.70;;
65871;SDS011;52653;50.080;21.992;2023-03-31T01:14:25;12.70;;;9.90;;
65871;SDS011;52653;50.080;21.992;2023-03-31T01:17:02;13.00;;;10.40;;
65871;SDS011;52653;50.080;21.992;2023-03-31T01:19:55;13.30;;;9.60;;
65871;SDS011;52653;50.080;21.992;2023-03-31T01:23:17;11.20;;;9.20;;
65871;SDS011;52653;50.080;21.992;2023-03-31T01:26:34;12.30;;;9.80;;
65871;SDS011;52653;50.080;21.992;2023-03-31T01:29:33;12.70;;;9.20;;
65871;SDS011;52653;50.080;21.992;2023-03-31T01:32:42;12.80;;;9.80;;
65871;SDS011;52653;50.080;21.992;2023-03-31T01:36:06;12.70;;;9.70;;
65871;SDS011;52653;50.080;21.992;2023-03-31T01:39:02;11.40;;;8.50;;
65871;SDS011;52653;50.080;21.992;2023-03-31T01:42:13;12.20;;;9.30;;
65871;SDS011;52653;50.080;21.992;2023-03-31T01:45:04;11.80;;;9.90;;
65871;SDS011;52653;50.080;21.992;2023-03-31T01:48:08;12.40;;;9.70;;
65871;SDS011;52653;50.080;21.992;2023-03-31T01:51:08;12.40;;;9.90;;
65871;SDS011;52653;50.080;21.992;2023-03-31T01:54:08;12.10;;;9.60;;
65871;SDS011;52653;50.080;21.992;2023-03-31T01:57:10;13.00;;;9.60;;
65871;SDS011;52653;50.080;21.992;2023-03-31T01:59:48;13.00;;;10.10;;
65871;SDS011;52653;50.080;21.992;2023-03-31T02:02:34;12.70;;;9.40;;
65871;SDS011;52653;50.080;21.992;2023-03-31T02:05:31;11.50;;;10.00;;
65871;SDS011;52653;50.080;21.992;2023-03-31T02:08:29;11.90;;;9.30;;
65871;SDS011;52653;50.080;21.992;2023-03-31T02:11:19;11.70;;;9.30;;
65871;SDS011;52653;50.080;21.992;2023-03-31T02:14:11;11.30;;;9.20;;
65871;SDS011;52653;50.080;21.992;2023-03-31T02:17:10;12.30;;;9.60;;
65871;SDS011;52653;50.080;21.992;2023-03-31T02:22:43;12.10;;;9.70;;
65871;SDS011;52653;50.080;21.992;2023-03-31T02:25:40;12.60;;;10.10;;
65871;SDS011;52653;50.080;21.992;2023-03-31T02:31:22;12.10;;;10.10;;
65871;SDS011;52653;50.080;21.992;2023-03-31T02:34:37;12.40;;;9.70;;
65871;SDS011;52653;50.080;21.992;2023-03-31T02:37:19;13.40;;;9.80;;
65871;SDS011;52653;50.080;21.992;2023-03-31T02:40:13;11.50;;;9.90;;
65871;SDS011;52653;50.080;21.992;2023-03-31T02:43:09;11.90;;;10.10;;
65871;SDS011;52653;50.080;21.992;2023-03-31T02:46:02;11.90;;;9.90;;
65871;SDS011;52653;50.080;21.992;2023-03-31T02:48:55;12.90;;;10.00;;
65871;SDS011;52653;50.080;21.992;2023-03-31T02:52:10;12.00;;;9.80;;
65871;SDS011;52653;50.080;21.992;2023-03-31T02:55:16;12.00;;;10.00;;
65871;SDS011;52653;50.080;21.992;2023-03-31T02:58:37;11.60;;;9.80;;
65871;SDS011;52653;50.080;21.992;2023-03-31T03:01:42;12.70;;;10.60;;
65871;SDS011;52653;50.080;21.992;2023-03-31T03:04:48;11.90;;;9.80;;
65871;SDS011;52653;50.080;21.992;2023-03-31T03:07:57;13.20;;;11.20;;
65871;SDS011;52653;50.080;21.992;2023-03-31T03:11:06;13.30;;;10.50;;
65871;SDS011;52653;50.080;21.992;2023-03-31T03:14:08;14.20;;;11.40;;
65871;SDS011;52653;50.080;21.992;2023-03-31T03:17:09;16.00;;;12.80;;
65871;SDS011;52653;50.080;21.992;2023-03-31T03:20:09;16.80;;;13.60;;
65871;SDS011;52653;50.080;21.992;2023-03-31T03:23:04;15.80;;;13.10;;
65871;SDS011;52653;50.080;21.992;2023-03-31T03:25:57;17.30;;;13.00;;
65871;SDS011;52653;50.080;21.992;2023-03-31T03:28:50;16.30;;;13.00;;
65871;SDS011;52653;50.080;21.992;2023-03-31T03:31:43;16.20;;;12.10;;
65871;SDS011;52653;50.080;21.992;2023-03-31T03:34:36;15.30;;;11.20;;
65871;SDS011;52653;50.080;21.992;2023-03-31T03:37:29;15.20;;;12.10;;
65871;SDS011;52653;50.080;21.992;2023-03-31T03:40:22;14.90;;;11.70;;
65871;SDS011;52653;50.080;21.992;2023-03-31T03:43:15;16.20;;;11.90;;
65871;SDS011;52653;50.080;21.992;2023-03-31T03:46:08;16.70;;;13.10;;
65871;SDS011;52653;50.080;21.992;2023-03-31T03:49:01;15.20;;;12.30;;
65871;SDS011;52653;50.080;21.992;2023-03-31T03:51:54;16.30;;;12.70;;
65871;SDS011;52653;50.080;21.992;2023-03-31T03:54:47;15.30;;;12.50;;
65871;SDS011;52653;50.080;21.992;2023-03-31T03:57:39;15.80;;;12.80;;
65871;SDS011;52653;50.080;21.992;2023-03-31T04:00:15;16.70;;;12.70;;
65871;SDS011;52653;50.080;21.992;2023-03-31T04:03:09;17.30;;;13.30;;
65871;SDS011;52653;50.080;21.992;2023-03-31T04:05:45;15.60;;;12.90;;
65871;SDS011;52653;50.080;21.992;2023-03-31T04:08:22;16.80;;;13.20;;
65871;SDS011;52653;50.080;21.992;2023-03-31T04:11:17;17.50;;;13.60;;
65871;SDS011;52653;50.080;21.992;2023-03-31T04:14:10;16.40;;;12.80;;
65871;SDS011;52653;50.080;21.992;2023-03-31T04:17:03;17.10;;;13.70;;
65871;SDS011;52653;50.080;21.992;2023-03-31T04:19:38;16.20;;;13.50;;
65871;SDS011;52653;50.080;21.992;2023-03-31T04:22:14;15.50;;;13.00;;
65871;SDS011;52653;50.080;21.992;2023-03-31T04:25:10;15.50;;;12.40;;
65871;SDS011;52653;50.080;21.992;2023-03-31T04:28:05;14.90;;;12.70;;
65871;SDS011;52653;50.080;21.992;2023-03-31T04:30:43;16.40;;;13.00;;
65871;SDS011;52653;50.080;21.992;2023-03-31T04:33:18;16.00;;;12.70;;
65871;SDS011;52653;50.080;21.992;2023-03-31T04:36:02;16.80;;;12.90;;
65871;SDS011;52653;50.080;21.992;2023-03-31T04:38:56;18.20;;;14.00;;
65871;SDS011;52653;50.080;21.992;2023-03-31T04:41:50;17.10;;;12.90;;
65871;SDS011;52653;50.080;21.992;2023-03-31T04:44:34;17.00;;;13.80;;
65871;SDS011;52653;50.080;21.992;2023-03-31T04:47:26;16.40;;;13.20;;
65871;SDS011;52653;50.080;21.992;2023-03-31T04:50:19;16.50;;;13.20;;
65871;SDS011;52653;50.080;21.992;2023-03-31T04:53:06;16.00;;;13.50;;
65871;SDS011;52653;50.080;21.992;2023-03-31T04:55:39;18.40;;;13.90;;
65871;SDS011;52653;50.080;21.992;2023-03-31T04:58:31;17.50;;;13.00;;
65871;SDS011;52653;50.080;21.992;2023-03-31T05:01:24;17.20;;;13.50;;
65871;SDS011;52653;50.080;21.992;2023-03-31T05:04:21;17.80;;;12.70;;
65871;SDS011;52653;50.080;21.992;2023-03-31T05:07:15;16.20;;;12.80;;
65871;SDS011;52653;50.080;21.992;2023-03-31T05:10:09;15.60;;;12.90;;
65871;SDS011;52653;50.080;21.992;2023-03-31T05:13:02;17.50;;;13.20;;
65871;SDS011;52653;50.080;21.992;2023-03-31T05:15:55;15.20;;;12.00;;
65871;SDS011;52653;50.080;21.992;2023-03-31T05:18:50;17.90;;;12.80;;
65871;SDS011;52653;50.080;21.992;2023-03-31T05:21:44;14.60;;;11.90;;
65871;SDS011;52653;50.080;21.992;2023-03-31T05:24:27;16.00;;;13.00;;
65871;SDS011;52653;50.080;21.992;2023-03-31T05:27:10;16.70;;;12.70;;
65871;SDS011;52653;50.080;21.992;2023-03-31T05:30:03;17.10;;;12.10;;
65871;SDS011;52653;50.080;21.992;2023-03-31T05:32:57;16.70;;;12.90;;
65871;SDS011;52653;50.080;21.992;2023-03-31T05:35:50;15.50;;;12.40;;
65871;SDS011;52653;50.080;21.992;2023-03-31T05:38:43;16.10;;;12.80;;
65871;SDS011;52653;50.080;21.992;2023-03-31T05:41:37;14.30;;;11.70;;
65871;SDS011;52653;50.080;21.992;2023-03-31T05:44:30;15.60;;;12.30;;
65871;SDS011;52653;50.080;21.992;2023-03-31T05:47:23;14.30;;;11.60;;
65871;SDS011;52653;50.080;21.992;2023-03-31T05:50:16;16.00;;;12.00;;
65871;SDS011;52653;50.080;21.992;2023-03-31T05:53:09;14.40;;;11.60;;
65871;SDS011;52653;50.080;21.992;2023-03-31T05:55:43;14.10;;;11.50;;
65871;SDS011;52653;50.080;21.992;2023-03-31T05:58:17;15.80;;;11.80;;
65871;SDS011;52653;50.080;21.992;2023-03-31T06:01:12;15.90;;;12.50;;
65871;SDS011;52653;50.080;21.992;2023-03-31T06:04:08;14.00;;;10.80;;
65871;SDS011;52653;50.080;21.992;2023-03-31T06:06:55;16.00;;;11.30;;
65871;SDS011;52653;50.080;21.992;2023-03-31T06:09:28;16.10;;;11.50;;
65871;SDS011;52653;50.080;21.992;2023-03-31T06:12:21;14.80;;;10.80;;
65871;SDS011;52653;50.080;21.992;2023-03-31T06:15:15;14.00;;;10.80;;
65871;SDS011;52653;50.080;21.992;2023-03-31T06:18:08;14.00;;;10.90;;
65871;SDS011;52653;50.080;21.992;2023-03-31T06:21:01;14.80;;;10.30;;
65871;SDS011;52653;50.080;21.992;2023-03-31T06:23:45;14.60;;;10.90;;
65871;SDS011;52653;50.080;21.992;2023-03-31T06:26:31;14.30;;;10.70;;
65871;SDS011;52653;50.080;21.992;2023-03-31T06:29:24;14.30;;;10.30;;
65871;SDS011;52653;50.080;21.992;2023-03-31T06:32:18;13.10;;;9.60;;
65871;SDS011;52653;50.080;21.992;2023-03-31T06:35:11;13.90;;;9.00;;
65871;SDS011;52653;50.080;21.992;2023-03-31T06:37:47;11.80;;;9.10;;
65871;SDS011;52653;50.080;21.992;2023-03-31T06:40:39;12.10;;;8.60;;
65871;SDS011;52653;50.080;21.992;2023-03-31T06:43:34;11.30;;;8.60;;
65871;SDS011;52653;50.080;21.992;2023-03-31T06:46:10;11.60;;;8.10;;
65871;SDS011;52653;50.080;21.992;2023-03-31T06:49:04;13.60;;;8.80;;
65871;SDS011;52653;50.080;21.992;2023-03-31T06:51:57;12.70;;;8.30;;
65871;SDS011;52653;50.080;21.992;2023-03-31T06:54:41;11.90;;;8.20;;
65871;SDS011;52653;50.080;21.992;2023-03-31T06:57:24;12.50;;;8.50;;
65871;SDS011;52653;50.080;21.992;2023-03-31T07:00:13;12.50;;;8.80;;
65871;SDS011;52653;50.080;21.992;2023-03-31T07:03:11;14.00;;;9.20;;
65871;SDS011;52653;50.080;21.992;2023-03-31T07:06:07;14.00;;;9.30;;
65871;SDS011;52653;50.080;21.992;2023-03-31T07:08:41;10.70;;;8.20;;
65871;SDS011;52653;50.080;21.992;2023-03-31T07:11:27;12.10;;;8.10;;
65871;SDS011;52653;50.080;21.992;2023-03-31T07:14:03;11.30;;;8.70;;
65871;SDS011;52653;50.080;21.992;2023-03-31T07:16:46;14.20;;;8.40;;
65871;SDS011;52653;50.080;21.992;2023-03-31T07:19:30;11.90;;;8.20;;
65871;SDS011;52653;50.080;21.992;2023-03-31T07:22:07;11.00;;;7.70;;
65871;SDS011;52653;50.080;21.992;2023-03-31T07:24:40;10.90;;;7.80;;
65871;SDS011;52653;50.080;21.992;2023-03-31T07:27:13;11.70;;;8.60;;
65871;SDS011;52653;50.080;21.992;2023-03-31T07:29:46;11.50;;;8.00;;
65871;SDS011;52653;50.080;21.992;2023-03-31T07:32:19;9.90;;;6.90;;
65871;SDS011;52653;50.080;21.992;2023-03-31T07:35:07;10.60;;;7.50;;
65871;SDS011;52653;50.080;21.992;2023-03-31T07:37:42;9.80;;;7.50;;
65871;SDS011;52653;50.080;21.992;2023-03-31T07:40:36;11.40;;;6.80;;
65871;SDS011;52653;50.080;21.992;2023-03-31T07:43:19;8.60;;;6.50;;
65871;SDS011;52653;50.080;21.992;2023-03-31T07:46:03;9.30;;;6.70;;
65871;SDS011;52653;50.080;21.992;2023-03-31T07:48:57;9.90;;;6.40;;
65871;SDS011;52653;50.080;21.992;2023-03-31T07:51:32;11.80;;;6.40;;
65871;SDS011;52653;50.080;21.992;2023-03-31T07:54:04;8.80;;;6.10;;
65871;SDS011;52653;50.080;21.992;2023-03-31T07:56:39;8.80;;;6.00;;
65871;SDS011;52653;50.080;21.992;2023-03-31T07:59:16;9.90;;;6.40;;
65871;SDS011;52653;50.080;21.992;2023-03-31T08:01:49;9.40;;;6.20;;
65871;SDS011;52653;50.080;21.992;2023-03-31T08:04:25;10.80;;;6.50;;
65871;SDS011;52653;50.080;21.992;2023-03-31T08:07:01;8.30;;;5.60;;
65871;SDS011;52653;50.080;21.992;2023-03-31T08:09:34;8.80;;;6.20;;
65871;SDS011;52653;50.080;21.992;2023-03-31T08:12:07;9.10;;;6.00;;
65871;SDS011;52653;50.080;21.992;2023-03-31T08:15:00;8.30;;;6.20;;
65871;SDS011;52653;50.080;21.992;2023-03-31T08:17:36;8.70;;;6.10;;
65871;SDS011;52653;50.080;21.992;2023-03-31T08:20:30;9.80;;;6.40;;
65871;SDS011;52653;50.080;21.992;2023-03-31T08:23:23;10.70;;;6.40;;
65871;SDS011;52653;50.080;21.992;2023-03-31T08:26:16;8.90;;;6.20;;
65871;SDS011;52653;50.080;21.992;2023-03-31T08:28:56;11.50;;;7.00;;
65871;SDS011;52653;50.080;21.992;2023-03-31T08:31:41;10.70;;;6.30;;
65871;SDS011;52653;50.080;21.992;2023-03-31T08:34:34;10.20;;;6.20;;
65871;SDS011;52653;50.080;21.992;2023-03-31T08:37:27;7.50;;;5.30;;
65871;SDS011;52653;50.080;21.992;2023-03-31T08:40:21;9.40;;;5.90;;
65871;SDS011;52653;50.080;21.992;2023-03-31T08:43:20;8.40;;;5.60;;
65871;SDS011;52653;50.080;21.992;2023-03-31T08:46:18;9.60;;;5.80;;
65871;SDS011;52653;50.080;21.992;2023-03-31T08:49:12;7.60;;;5.20;;
65871;SDS011;52653;50.080;21.992;2023-03-31T08:52:11;8.00;;;5.00;;
65871;SDS011;52653;50.080;21.992;2023-03-31T08:55:09;9.10;;;5.60;;
65871;SDS011;52653;50.080;21.992;2023-03-31T08:58:00;9.20;;;5.60;;
65871;SDS011;52653;50.080;21.992;2023-03-31T09:00:59;7.70;;;5.80;;
65871;SDS011;52653;50.080;21.992;2023-03-31T09:04:05;7.30;;;5.10;;
65871;SDS011;52653;50.080;21.992;2023-03-31T09:07:10;7.40;;;5.00;;
65871;SDS011;52653;50.080;21.992;2023-03-31T09:10:19;9.70;;;5.90;;
65871;SDS011;52653;50.080;21.992;2023-03-31T09:13:29;9.00;;;5.60;;
65871;SDS011;52653;50.080;21.992;2023-03-31T09:16:18;8.00;;;5.00;;
65871;SDS011;52653;50.080;21.992;2023-03-31T09:19:15;7.10;;;5.10;;
65871;SDS011;52653;50.080;21.992;2023-03-31T09:22:02;8.90;;;5.10;;
65871;SDS011;52653;50.080;21.992;2023-03-31T09:25:02;8.70;;;4.80;;
65871;SDS011;52653;50.080;21.992;2023-03-31T09:28:02;7.80;;;5.00;;
65871;SDS011;52653;50.080;21.992;2023-03-31T09:31:03;7.80;;;4.70;;
65871;SDS011;52653;50.080;21.992;2023-03-31T09:34:09;8.30;;;4.60;;
65871;SDS011;52653;50.080;21.992;2023-03-31T09:37:05;7.10;;;4.90;;
65871;SDS011;52653;50.080;21.992;2023-03-31T09:40:03;9.00;;;4.70;;
65871;SDS011;52653;50.080;21.992;2023-03-31T09:43:02;6.90;;;4.40;;
65871;SDS011;52653;50.080;21.992;2023-03-31T09:45:43;6.90;;;4.20;;
65871;SDS011;52653;50.080;21.992;2023-03-31T09:48:58;8.60;;;4.10;;
65871;SDS011;52653;50.080;21.992;2023-03-31T09:52:04;7.20;;;3.40;;
65871;SDS011;52653;50.080;21.992;2023-03-31T09:55:17;7.50;;;4.10;;
65871;SDS011;52653;50.080;21.992;2023-03-31T09:58:27;8.10;;;4.70;;
65871;SDS011;52653;50.080;21.992;2023-03-31T10:01:21;6.50;;;4.60;;
65871;SDS011;52653;50.080;21.992;2023-03-31T10:04:18;7.40;;;4.00;;
65871;SDS011;52653;50.080;21.992;2023-03-31T10:07:18;7.00;;;4.20;;
65871;SDS011;52653;50.080;21.992;2023-03-31T10:10:17;9.20;;;4.20;;
65871;SDS011;52653;50.080;21.992;2023-03-31T10:13:21;7.30;;;3.80;;
65871;SDS011;52653;50.080;21.992;2023-03-31T10:16:20;6.90;;;3.80;;
65871;SDS011;52653;50.080;21.992;2023-03-31T10:19:20;7.60;;;3.40;;
65871;SDS011;52653;50.080;21.992;2023-03-31T10:25:08;7.50;;;3.60;;
65871;SDS011;52653;50.080;21.992;2023-03-31T10:28:09;6.90;;;3.30;;
65871;SDS011;52653;50.080;21.992;2023-03-31T10:31:07;8.80;;;3.80;;
65871;SDS011;52653;50.080;21.992;2023-03-31T10:34:00;6.90;;;3.20;;
65871;SDS011;52653;50.080;21.992;2023-03-31T10:36:58;5.20;;;3.10;;
65871;SDS011;52653;50.080;21.992;2023-03-31T10:39:40;8.30;;;3.60;;
65871;SDS011;52653;50.080;21.992;2023-03-31T10:42:29;6.50;;;3.10;;
65871;SDS011;52653;50.080;21.992;2023-03-31T10:45:22;7.20;;;3.50;;
65871;SDS011;52653;50.080;21.992;2023-03-31T10:48:27;5.60;;;3.10;;
65871;SDS011;52653;50.080;21.992;2023-03-31T10:51:14;5.40;;;3.10;;
65871;SDS011;52653;50.080;21.992;2023-03-31T10:53:48;7.10;;;3.80;;
65871;SDS011;52653;50.080;21.992;2023-03-31T10:56:43;5.00;;;3.00;;
65871;SDS011;52653;50.080;21.992;2023-03-31T10:59:45;5.90;;;2.90;;
65871;SDS011;52653;50.080;21.992;2023-03-31T11:03:11;7.00;;;2.80;;
65871;SDS011;52653;50.080;21.992;2023-03-31T11:06:28;5.40;;;2.60;;
65871;SDS011;52653;50.080;21.992;2023-03-31T11:09:15;5.10;;;2.40;;
65871;SDS011;52653;50.080;21.992;2023-03-31T11:12:10;6.70;;;3.10;;
65871;SDS011;52653;50.080;21.992;2023-03-31T11:15:14;5.60;;;3.10;;
65871;SDS011;52653;50.080;21.992;2023-03-31T11:18:00;5.90;;;3.10;;
65871;SDS011;52653;50.080;21.992;2023-03-31T11:21:06;6.50;;;3.30;;
65871;SDS011;52653;50.080;21.992;2023-03-31T11:24:12;6.20;;;3.10;;
65871;SDS011;52653;50.080;21.992;2023-03-31T11:27:24;7.40;;;3.80;;
65871;SDS011;52653;50.080;21.992;2023-03-31T11:30:27;7.80;;;4.50;;
65871;SDS011;52653;50.080;21.992;2023-03-31T11:33:17;9.10;;;3.90;;
65871;SDS011;52653;50.080;21.992;2023-03-31T11:36:17;5.70;;;3.40;;
65871;SDS011;52653;50.080;21.992;2023-03-31T11:39:28;5.50;;;2.90;;
65871;SDS011;52653;50.080;21.992;2023-03-31T11:42:23;5.80;;;3.00;;
65871;SDS011;52653;50.080;21.992;2023-03-31T11:44:59;6.80;;;3.00;;
65871;SDS011;52653;50.080;21.992;2023-03-31T11:47:52;5.60;;;3.20;;
65871;SDS011;52653;50.080;21.992;2023-03-31T11:50:39;7.90;;;4.50;;
65871;SDS011;52653;50.080;21.992;2023-03-31T11:53:26;7.50;;;4.60;;
65871;SDS011;52653;50.080;21.992;2023-03-31T11:56:03;10.60;;;5.50;;
65871;SDS011;52653;50.080;21.992;2023-03-31T11:59:00;9.50;;;4.30;;
65871;SDS011;52653;50.080;21.992;2023-03-31T12:01:59;9.00;;;4.40;;
65871;SDS011;52653;50.080;21.992;2023-03-31T12:04:41;7.40;;;4.00;;
65871;SDS011;52653;50.080;21.992;2023-03-31T12:07:38;7.70;;;4.30;;
65871;SDS011;52653;50.080;21.992;2023-03-31T12:13:27;7.80;;;4.70;;
65871;SDS011;52653;50.080;21.992;2023-03-31T12:16:36;6.80;;;4.10;;
65871;SDS011;52653;50.080;21.992;2023-03-31T12:19:25;8.00;;;4.40;;
65871;SDS011;52653;50.080;21.992;2023-03-31T12:22:10;7.80;;;4.60;;
65871;SDS011;52653;50.080;21.992;2023-03-31T12:25:10;7.80;;;4.50;;
65871;SDS011;52653;50.080;21.992;2023-03-31T12:28:04;9.00;;;5.60;;
65871;SDS011;52653;50.080;21.992;2023-03-31T12:30:57;8.60;;;5.10;;
65871;SDS011;52653;50.080;21.992;2023-03-31T12:33:43;7.80;;;4.80;;
65871;SDS011;52653;50.080;21.992;2023-03-31T12:36:29;10.20;;;6.30;;
65871;SDS011;52653;50.080;21.992;2023-03-31T12:39:12;8.60;;;5.50;;
65871;SDS011;52653;50.080;21.992;2023-03-31T12:42:10;9.80;;;5.30;;
65871;SDS011;52653;50.080;21.992;2023-03-31T12:45:01;7.80;;;4.70;;
65871;SDS011;52653;50.080;21.992;2023-03-31T12:47:52;8.30;;;4.80;;
65871;SDS011;52653;50.080;21.992;2023-03-31T12:50:41;8.40;;;5.00;;
65871;SDS011;52653;50.080;21.992;2023-03-31T12:53:34;9.90;;;4.70;;
65871;SDS011;52653;50.080;21.992;2023-03-31T12:56:14;8.30;;;4.80;;
65871;SDS011;52653;50.080;21.992;2023-03-31T12:58:47;9.50;;;4.40;;
65871;SDS011;52653;50.080;21.992;2023-03-31T13:01:31;8.80;;;4.60;;
65871;SDS011;52653;50.080;21.992;2023-03-31T13:04:08;8.70;;;5.00;;
65871;SDS011;52653;50.080;21.992;2023-03-31T13:07:00;10.20;;;5.40;;
65871;SDS011;52653;50.080;21.992;2023-03-31T13:10:28;9.50;;;5.50;;
65871;SDS011;52653;50.080;21.992;2023-03-31T13:13:13;9.10;;;5.60;;
65871;SDS011;52653;50.080;21.992;2023-03-31T13:15:50;9.20;;;5.40;;
65871;SDS011;52653;50.080;21.992;2023-03-31T13:18:30;10.00;;;5.80;;
65871;SDS011;52653;50.080;21.992;2023-03-31T13:21:07;21.60;;;8.40;;
65871;SDS011;52653;50.080;21.992;2023-03-31T13:24:05;12.10;;;7.80;;
65871;SDS011;52653;50.080;21.992;2023-03-31T13:26:39;8.90;;;6.20;;
65871;SDS011;52653;50.080;21.992;2023-03-31T13:29:19;10.50;;;6.10;;
65871;SDS011;52653;50.080;21.992;2023-03-31T13:35:15;9.20;;;5.90;;
65871;SDS011;52653;50.080;21.992;2023-03-31T13:38:04;8.60;;;5.20;;
65871;SDS011;52653;50.080;21.992;2023-03-31T13:40:54;8.90;;;5.10;;
65871;SDS011;52653;50.080;21.992;2023-03-31T13:44:03;9.60;;;6.10;;
65871;SDS011;52653;50.080;21.992;2023-03-31T13:46:58;8.90;;;6.00;;
65871;SDS011;52653;50.080;21.992;2023-03-31T13:49:54;8.90;;;6.10;;
65871;SDS011;52653;50.080;21.992;2023-03-31T13:52:41;8.60;;;5.90;;
65871;SDS011;52653;50.080;21.992;2023-03-31T13:55:39;11.90;;;6.20;;
65871;SDS011;52653;50.080;21.992;2023-03-31T13:58:33;10.30;;;6.80;;
65871;SDS011;52653;50.080;21.992;2023-03-31T14:01:49;9.20;;;5.80;;
65871;SDS011;52653;50.080;21.992;2023-03-31T14:08:04;12.20;;;7.00;;
65871;SDS011;52653;50.080;21.992;2023-03-31T14:11:16;9.50;;;7.00;;
65871;SDS011;52653;50.080;21.992;2023-03-31T14:14:12;11.40;;;7.40;;
65871;SDS011;52653;50.080;21.992;2023-03-31T14:16:47;11.60;;;7.30;;
65871;SDS011;52653;50.080;21.992;2023-03-31T14:19:50;12.40;;;8.10;;
65871;SDS011;52653;50.080;21.992;2023-03-31T14:23:01;12.70;;;8.30;;
65871;SDS011;52653;50.080;21.992;2023-03-31T14:26:03;11.40;;;8.00;;
65871;SDS011;52653;50.080;21.992;2023-03-31T14:29:04;12.30;;;8.00;;
65871;SDS011;52653;50.080;21.992;2023-03-31T14:31:48;13.30;;;8.30;;
65871;SDS011;52653;50.080;21.992;2023-03-31T14:34:54;13.50;;;8.90;;
65871;SDS011;52653;50.080;21.992;2023-03-31T14:37:39;12.70;;;8.70;;
65871;SDS011;52653;50.080;21.992;2023-03-31T14:40:34;11.40;;;7.90;;
65871;SDS011;52653;50.080;21.992;2023-03-31T14:43:53;14.80;;;10.00;;
65871;SDS011;52653;50.080;21.992;2023-03-31T14:46:47;16.00;;;10.80;;
65871;SDS011;52653;50.080;21.992;2023-03-31T14:49:35;13.60;;;8.90;;
65871;SDS011;52653;50.080;21.992;2023-03-31T14:52:13;16.50;;;9.40;;
65871;SDS011;52653;50.080;21.992;2023-03-31T14:54:48;14.30;;;9.00;;
65871;SDS011;52653;50.080;21.992;2023-03-31T14:57:28;14.50;;;9.50;;
65871;SDS011;52653;50.080;21.992;2023-03-31T15:00:05;13.30;;;8.90;;
65871;SDS011;52653;50.080;21.992;2023-03-31T15:02:43;12.80;;;8.90;;
65871;SDS011;52653;50.080;21.992;2023-03-31T15:05:28;13.50;;;9.40;;
65871;SDS011;52653;50.080;21.992;2023-03-31T15:08:04;15.20;;;9.30;;
65871;SDS011;52653;50.080;21.992;2023-03-31T15:10:42;13.30;;;9.20;;
65871;SDS011;52653;50.080;21.992;2023-03-31T15:13:31;14.00;;;9.00;;
65871;SDS011;52653;50.080;21.992;2023-03-31T15:16:25;15.50;;;10.40;;
65871;SDS011;52653;50.080;21.992;2023-03-31T15:19:07;15.90;;;9.40;;
65871;SDS011;52653;50.080;21.992;2023-03-31T15:21:54;18.60;;;12.20;;
65871;SDS011;52653;50.080;21.992;2023-03-31T15:24:50;22.70;;;14.70;;
65871;SDS011;52653;50.080;21.992;2023-03-31T15:27:29;21.50;;;14.40;;
65871;SDS011;52653;50.080;21.992;2023-03-31T15:30:12;17.70;;;11.70;;
65871;SDS011;52653;50.080;21.992;2023-03-31T15:32:47;13.00;;;8.90;;
65871;SDS011;52653;50.080;21.992;2023-03-31T15:35:32;14.20;;;9.30;;
65871;SDS011;52653;50.080;21.992;2023-03-31T15:38:26;13.80;;;8.50;;
65871;SDS011;52653;50.080;21.992;2023-03-31T15:41:01;12.00;;;8.30;;
65871;SDS011;52653;50.080;21.992;2023-03-31T15:44:02;11.90;;;7.40;;
65871;SDS011;52653;50.080;21.992;2023-03-31T15:46:53;13.00;;;8.40;;
65871;SDS011;52653;50.080;21.992;2023-03-31T15:49:51;12.90;;;8.00;;
65871;SDS011;52653;50.080;21.992;2023-03-31T15:52:30;13.20;;;8.60;;
65871;SDS011;52653;50.080;21.992;2023-03-31T15:55:24;12.50;;;9.00;;
65871;SDS011;52653;50.080;21.992;2023-03-31T15:58:15;13.70;;;9.50;;
65871;SDS011;52653;50.080;21.992;2023-03-31T16:00:51;11.50;;;8.70;;
65871;SDS011;52653;50.080;21.992;2023-03-31T16:03:46;12.80;;;8.90;;
65871;SDS011;52653;50.080;21.992;2023-03-31T16:06:28;12.90;;;9.00;;
65871;SDS011;52653;50.080;21.992;2023-03-31T16:09:36;16.10;;;10.60;;
65871;SDS011;52653;50.080;21.992;2023-03-31T16:12:13;14.70;;;10.20;;
65871;SDS011;52653;50.080;21.992;2023-03-31T16:15:08;13.70;;;9.80;;
65871;SDS011;52653;50.080;21.992;2023-03-31T16:17:49;16.80;;;11.00;;
65871;SDS011;52653;50.080;21.992;2023-03-31T16:20:25;15.50;;;10.10;;
65871;SDS011;52653;50.080;21.992;2023-03-31T16:23:18;15.60;;;10.50;;
65871;SDS011;52653;50.080;21.992;2023-03-31T16:25:58;18.30;;;12.90;;
65871;SDS011;52653;50.080;21.992;2023-03-31T16:28:35;17.20;;;12.60;;
65871;SDS011;52653;50.080;21.992;2023-03-31T16:34:25;25.70;;;18.70;;
65871;SDS011;52653;50.080;21.992;2023-03-31T16:37:03;24.90;;;17.80;;
65871;SDS011;52653;50.080;21.992;2023-03-31T16:40:00;21.80;;;16.10;;
65871;SDS011;52653;50.080;21.992;2023-03-31T16:42:36;21.90;;;15.30;;
65871;SDS011;52653;50.080;21.992;2023-03-31T16:45:13;21.50;;;16.20;;
65871;SDS011;52653;50.080;21.992;2023-03-31T16:47:58;23.40;;;15.40;;
65871;SDS011;52653;50.080;21.992;2023-03-31T16:50:45;21.70;;;14.80;;
65871;SDS011;52653;50.080;21.992;2023-03-31T16:53:22;20.40;;;14.30;;
65871;SDS011;52653;50.080;21.992;2023-03-31T16:55:57;21.40;;;15.20;;
65871;SDS011;52653;50.080;21.992;2023-03-31T16:58:30;21.60;;;15.20;;
65871;SDS011;52653;50.080;21.992;2023-03-31T17:01:08;22.10;;;15.30;;
65871;SDS011;52653;50.080;21.992;2023-03-31T17:04:02;21.00;;;14.50;;
65871;SDS011;52653;50.080;21.992;2023-03-31T17:06:35;21.70;;;15.40;;